Time;durP1;ratioP1;P1;durP2;ratioP2;P2;SDS_P1;SDS_P2;PMS_P1;PMS_P2;Temp;Humidity;BMP_temperature;BMP_pressure;BME280_temperature;BME280_humidity;BME280_pressure;Samples;Min_cycle;Max_cycle;Signal;HPM_P1;HPM_P2
2024/04/07 00:01:44;;;;;;;2.60;1.90;;;14.40;99.90;;;;;;4984964;28;20039;-48
2024/04/07 00:04:10;;;;;;;1.50;1.40;;;14.40;99.90;;;;;;4985066;28;20100;-50
2024/04/07 00:06:35;;;;;;;2.03;1.80;;;14.30;99.90;;;;;;4985803;28;20065;-49
2024/04/07 00:09:01;;;;;;;2.85;2.00;;;14.30;99.90;;;;;;4983141;28;20034;-50
2024/04/07 00:11:28;;;;;;;1.90;1.60;;;14.30;99.90;;;;;;4983064;28;20037;-50
2024/04/07 00:13:54;;;;;;;4.22;1.77;;;14.20;99.90;;;;;;4983749;28;20042;-51
2024/04/07 00:16:20;;;;;;;4.13;1.75;;;14.20;99.90;;;;;;4983306;28;20030;-52
2024/04/07 00:18:46;;;;;;;4.63;1.88;;;14.20;99.90;;;;;;4983341;28;20236;-50
2024/04/07 00:21:12;;;;;;;2.33;1.88;;;14.20;99.90;;;;;;4984863;28;20109;-50
2024/04/07 00:23:38;;;;;;;4.45;1.85;;;14.20;99.90;;;;;;4982834;28;20023;-51
2024/04/07 00:26:04;;;;;;;2.97;1.52;;;14.20;99.90;;;;;;4982687;28;20031;-48
2024/04/07 00:28:30;;;;;;;2.03;1.73;;;14.20;99.90;;;;;;4982856;28;20026;-50
2024/04/07 00:30:55;;;;;;;2.13;1.60;;;14.20;99.90;;;;;;4983084;28;20023;-50
2024/04/07 00:33:21;;;;;;;2.53;1.80;;;14.20;99.90;;;;;;4982196;28;20035;-53
2024/04/07 00:36:00;;;;;;;2.10;1.90;;;14.10;99.90;;;;;;4982006;28;20041;-54
2024/04/07 00:38:29;;;;;;;2.47;2.03;;;14.10;99.90;;;;;;4982774;28;20028;-51
2024/04/07 00:41:01;;;;;;;3.55;1.70;;;14.10;99.90;;;;;;4983749;28;20157;-49
2024/04/07 00:43:28;;;;;;;2.60;1.65;;;14.10;99.90;;;;;;4973330;28;20110;-49
2024/04/07 00:45:58;;;;;;;2.80;2.10;;;14.10;99.90;;;;;;4980909;28;20035;-49
2024/04/07 00:48:24;;;;;;;4.63;1.90;;;14.10;99.90;;;;;;4980944;28;20455;-50
2024/04/07 00:50:54;;;;;;;1.98;1.88;;;14.10;99.90;;;;;;4982545;28;20038;-54
2024/04/07 00:53:20;;;;;;;2.08;1.70;;;14.10;99.90;;;;;;4979865;28;20026;-49
2024/04/07 00:55:46;;;;;;;2.85;1.77;;;14.10;99.90;;;;;;4980295;28;20041;-50
2024/04/07 00:58:13;;;;;;;3.15;1.73;;;14.10;99.90;;;;;;4979394;28;20058;-52
2024/04/07 01:00:42;;;;;;;2.05;1.65;;;14.10;99.90;;;;;;4979780;28;20699;-49
2024/04/07 01:03:08;;;;;;;3.40;1.58;;;14.10;99.90;;;;;;4980246;28;20034;-47
2024/04/07 01:05:48;;;;;;;1.58;1.48;;;14.10;99.90;;;;;;4979636;28;20110;-49
2024/04/07 01:08:15;;;;;;;2.80;1.70;;;14.10;99.90;;;;;;4984621;28;20031;-50
2024/04/07 01:10:42;;;;;;;5.00;1.50;;;14.20;99.90;;;;;;4979236;28;20190;-53
2024/04/07 01:13:09;;;;;;;2.13;1.60;;;14.20;99.90;;;;;;4979529;28;20034;-49
2024/04/07 01:15:35;;;;;;;3.05;2.10;;;14.20;99.90;;;;;;4980048;28;20116;-47
2024/04/07 01:18:01;;;;;;;1.88;1.50;;;14.20;99.90;;;;;;4979315;28;20070;-54
2024/04/07 01:20:28;;;;;;;2.00;1.45;;;14.20;99.90;;;;;;4978934;28;20523;-47
2024/04/07 01:22:54;;;;;;;1.60;1.50;;;14.30;99.90;;;;;;4985024;28;20042;-52
2024/04/07 01:25:20;;;;;;;2.00;1.70;;;14.30;99.90;;;;;;4980906;28;20019;-53
2024/04/07 01:27:49;;;;;;;3.10;1.90;;;14.30;99.90;;;;;;4984329;28;20062;-48
2024/04/07 01:30:15;;;;;;;1.35;1.23;;;14.30;99.90;;;;;;4980738;28;20061;-50
2024/04/07 01:32:43;;;;;;;2.25;1.80;;;14.20;99.90;;;;;;4984032;28;20054;-50
2024/04/07 01:35:09;;;;;;;1.70;1.35;;;14.20;99.90;;;;;;4981069;28;20036;-50
2024/04/07 01:37:34;;;;;;;1.77;1.67;;;14.20;99.90;;;;;;4985247;28;20034;-49
2024/04/07 01:40:02;;;;;;;2.35;1.58;;;14.10;99.90;;;;;;4978580;28;20034;-47
2024/04/07 01:42:29;;;;;;;3.95;1.52;;;14.10;99.90;;;;;;4977710;28;20117;-49
2024/04/07 01:44:54;;;;;;;1.98;1.50;;;14.10;99.90;;;;;;4982709;28;20042;-47
2024/04/07 01:47:20;;;;;;;4.13;1.70;;;14.10;99.90;;;;;;4979806;28;20031;-49
2024/04/07 01:49:49;;;;;;;2.05;1.63;;;14.10;99.90;;;;;;4978985;28;20089;-52
2024/04/07 01:52:14;;;;;;;3.90;1.42;;;14.10;99.90;;;;;;4978333;28;20671;-51
2024/04/07 01:54:40;;;;;;;2.38;1.48;;;14.10;99.90;;;;;;4978743;28;20054;-52
2024/04/07 01:57:06;;;;;;;2.58;1.70;;;14.10;99.90;;;;;;4978445;28;20490;-49
2024/04/07 01:59:32;;;;;;;2.28;1.35;;;14.10;99.90;;;;;;4980042;28;20035;-53
2024/04/07 02:01:58;;;;;;;1.65;1.55;;;14.10;99.90;;;;;;4981430;28;20027;-49
2024/04/07 02:04:26;;;;;;;2.13;1.42;;;14.00;99.90;;;;;;4981034;28;20033;-50
2024/04/07 02:06:52;;;;;;;2.15;1.40;;;14.00;99.90;;;;;;4981546;28;20018;-53
2024/04/07 02:09:18;;;;;;;1.75;1.58;;;14.00;99.90;;;;;;4982572;28;20022;-51
2024/04/07 02:11:43;;;;;;;2.20;1.30;;;14.00;99.90;;;;;;4982505;28;20034;-48
2024/04/07 02:14:09;;;;;;;3.67;1.75;;;14.00;99.90;;;;;;4980001;28;20518;-49
2024/04/07 02:16:35;;;;;;;5.28;1.73;;;14.00;99.90;;;;;;4982531;28;20042;-52
2024/04/07 02:19:00;;;;;;;1.83;1.70;;;14.00;99.90;;;;;;4982282;28;20137;-52
2024/04/07 02:21:26;;;;;;;1.88;1.58;;;14.00;99.90;;;;;;4981325;28;20065;-49
2024/04/07 02:23:52;;;;;;;2.05;1.52;;;14.00;99.90;;;;;;4985442;28;20522;-52
2024/04/07 02:26:17;;;;;;;1.23;1.10;;;14.00;99.90;;;;;;4985447;28;20507;-54
2024/04/07 02:28:43;;;;;;;2.05;1.83;;;14.00;99.90;;;;;;4983321;28;20022;-51
2024/04/07 02:31:09;;;;;;;0.90;0.85;;;14.00;99.90;;;;;;4982756;28;20037;-53
2024/04/07 02:33:36;;;;;;;2.28;1.40;;;14.00;99.90;;;;;;4982231;28;20495;-52
2024/04/07 02:36:01;;;;;;;3.28;1.67;;;14.00;99.90;;;;;;4985936;28;20027;-49
2024/04/07 02:38:27;;;;;;;1.35;1.20;;;14.00;99.90;;;;;;4983612;28;20077;-53
2024/04/07 02:40:52;;;;;;;3.03;1.20;;;13.90;99.90;;;;;;4984502;28;20034;-52
2024/04/07 02:43:18;;;;;;;3.10;1.50;;;13.90;99.90;;;;;;4984484;28;20502;-52
2024/04/07 02:48:28;;;;;;;3.15;1.58;;;14.00;99.90;;;;;;4986848;28;20057;-49
2024/04/07 02:50:54;;;;;;;3.78;1.60;;;14.00;99.90;;;;;;4984584;28;20031;-52
2024/04/07 02:53:20;;;;;;;3.00;1.75;;;14.00;99.90;;;;;;4984217;28;20054;-48
2024/04/07 02:55:45;;;;;;;3.60;1.38;;;14.00;99.90;;;;;;4984723;28;20066;-50
2024/04/07 02:58:11;;;;;;;1.58;1.27;;;14.10;99.90;;;;;;4985199;28;20541;-50
2024/04/07 03:00:36;;;;;;;2.03;1.20;;;14.10;99.90;;;;;;4983474;28;20422;-48
2024/04/07 03:03:02;;;;;;;1.23;1.00;;;14.00;99.90;;;;;;4983069;28;20526;-50
2024/04/07 03:05:28;;;;;;;1.17;1.10;;;14.00;99.90;;;;;;4982543;28;20033;-54
2024/04/07 03:07:54;;;;;;;2.17;1.25;;;14.00;99.90;;;;;;4983197;28;20511;-50
2024/04/07 03:10:19;;;;;;;2.63;1.83;;;14.00;99.90;;;;;;4982291;28;20439;-47
2024/04/07 03:12:45;;;;;;;2.00;1.20;;;14.00;99.90;;;;;;4983741;28;20019;-51
2024/04/07 03:15:11;;;;;;;1.65;1.15;;;14.00;99.90;;;;;;4983111;28;20062;-55
2024/04/07 03:17:37;;;;;;;3.67;1.30;;;14.00;99.90;;;;;;4983341;28;20030;-47
2024/04/07 03:20:03;;;;;;;2.20;1.67;;;14.00;99.90;;;;;;4981535;28;20748;-50
2024/04/07 03:22:29;;;;;;;1.90;1.40;;;14.00;99.90;;;;;;4985173;28;20490;-49
2024/04/07 03:24:55;;;;;;;3.85;1.40;;;14.00;99.90;;;;;;4983328;28;20542;-52
2024/04/07 03:27:20;;;;;;;2.85;1.65;;;14.00;99.90;;;;;;4985297;28;20022;-50
2024/04/07 03:29:46;;;;;;;1.63;1.45;;;14.00;99.90;;;;;;4982928;28;20105;-51
2024/04/07 03:32:12;;;;;;;1.77;1.20;;;14.00;99.90;;;;;;4982952;28;20460;-55
2024/04/07 03:34:37;;;;;;;2.28;1.23;;;14.00;99.90;;;;;;4980759;28;20033;-51
2024/04/07 03:37:06;;;;;;;2.45;1.50;;;14.00;99.90;;;;;;4984647;28;20030;-48
2024/04/07 03:39:33;;;;;;;5.40;1.70;;;14.00;99.90;;;;;;4979128;28;20035;-57
2024/04/07 03:41:58;;;;;;;2.60;1.38;;;14.00;99.90;;;;;;4984158;28;20030;-52
2024/04/07 03:44:25;;;;;;;3.28;1.30;;;14.00;99.90;;;;;;4985010;28;20049;-51
2024/04/07 03:46:50;;;;;;;2.55;1.10;;;13.90;99.90;;;;;;4983213;28;20030;-49
2024/04/07 03:49:16;;;;;;;1.55;1.45;;;13.90;99.90;;;;;;4983225;28;20026;-52
2024/04/07 03:51:41;;;;;;;3.95;1.50;;;13.90;99.90;;;;;;4982986;28;20023;-48
2024/04/07 03:54:07;;;;;;;1.05;0.95;;;13.90;99.90;;;;;;4984865;28;20022;-50
2024/04/07 03:56:32;;;;;;;2.15;1.27;;;13.90;99.90;;;;;;4983037;28;20037;-58
2024/04/07 03:58:58;;;;;;;2.67;1.80;;;13.90;99.90;;;;;;4983945;28;20117;-53
2024/04/07 04:01:24;;;;;;;1.90;1.67;;;13.80;99.90;;;;;;4983938;28;20030;-51
2024/04/07 04:03:49;;;;;;;2.10;1.50;;;13.80;99.90;;;;;;4981817;28;20091;-48
2024/04/07 04:06:15;;;;;;;2.15;1.50;;;13.70;99.90;;;;;;4983025;28;20101;-52
2024/04/07 04:08:41;;;;;;;2.53;1.60;;;13.70;99.90;;;;;;4982609;28;20058;-54
2024/04/07 04:11:08;;;;;;;2.58;1.70;;;13.70;99.90;;;;;;4982432;28;20113;-50
2024/04/07 04:13:37;;;;;;;2.53;1.35;;;13.70;99.90;;;;;;4983994;28;20037;-54
2024/04/07 04:16:05;;;;;;;2.25;1.60;;;13.60;99.90;;;;;;4984460;28;20679;-47
2024/04/07 04:18:31;;;;;;;2.58;1.70;;;13.50;99.90;;;;;;4984130;28;20067;-53
2024/04/07 04:20:56;;;;;;;1.90;1.48;;;13.50;99.90;;;;;;4981463;28;20054;-49
2024/04/07 04:23:22;;;;;;;3.55;1.35;;;13.50;99.90;;;;;;4984358;28;20438;-52
2024/04/07 04:25:55;;;;;;;2.30;1.40;;;13.50;99.90;;;;;;4986634;28;20033;-51
2024/04/07 04:28:21;;;;;;;2.20;1.20;;;13.60;99.90;;;;;;4982781;28;20057;-54
2024/04/07 04:31:01;;;;;;;2.08;1.52;;;13.60;99.90;;;;;;4986594;28;20053;-50
2024/04/07 04:33:27;;;;;;;2.05;1.55;;;13.60;99.90;;;;;;4979895;28;20056;-53
2024/04/07 04:35:53;;;;;;;2.00;1.60;;;13.70;99.90;;;;;;4983284;28;20431;-53
2024/04/07 04:38:19;;;;;;;1.95;1.30;;;13.70;99.90;;;;;;4979521;28;20072;-53
2024/04/07 04:40:54;;;;;;;2.53;1.58;;;13.80;99.90;;;;;;4983033;28;20043;-52
2024/04/07 04:43:20;;;;;;;2.33;1.50;;;13.90;99.90;;;;;;4984386;28;20096;-53
2024/04/07 04:45:48;;;;;;;1.88;1.35;;;14.00;99.90;;;;;;4982337;28;20038;-51
2024/04/07 04:48:13;;;;;;;1.45;1.35;;;14.10;99.90;;;;;;4982211;28;20023;-48
2024/04/07 04:50:39;;;;;;;2.42;1.50;;;14.10;99.90;;;;;;4982659;28;20022;-53
2024/04/07 04:53:04;;;;;;;3.15;1.60;;;14.20;99.90;;;;;;4982457;28;20478;-51
2024/04/07 04:55:33;;;;;;;1.67;1.25;;;14.40;99.90;;;;;;4981010;28;20026;-51
2024/04/07 04:57:58;;;;;;;1.30;0.98;;;14.50;99.90;;;;;;4983738;28;20088;-52
2024/04/07 05:00:26;;;;;;;2.20;1.40;;;14.60;99.90;;;;;;4981713;28;20599;-49
2024/04/07 05:02:52;;;;;;;1.30;1.20;;;14.60;99.90;;;;;;4983745;28;20402;-50
2024/04/07 05:05:17;;;;;;;2.42;1.20;;;14.60;99.90;;;;;;4982595;28;20030;-51
2024/04/07 05:07:43;;;;;;;2.03;1.30;;;14.80;99.90;;;;;;4983089;28;20030;-50
2024/04/07 05:10:09;;;;;;;1.02;0.93;;;14.80;99.90;;;;;;4981337;28;20038;-48
2024/04/07 05:12:34;;;;;;;1.25;0.75;;;15.20;99.90;;;;;;4981578;28;20027;-53
2024/04/07 05:15:00;;;;;;;4.15;1.23;;;15.40;99.90;;;;;;4984021;28;20474;-51
2024/04/07 05:17:25;;;;;;;3.10;1.20;;;15.40;99.90;;;;;;4981892;28;20042;-54
2024/04/07 05:19:51;;;;;;;2.83;1.50;;;15.30;99.90;;;;;;4982471;28;20026;-47
2024/04/07 05:22:17;;;;;;;4.32;1.52;;;15.30;99.90;;;;;;4982977;28;20049;-52
2024/04/07 05:24:43;;;;;;;2.15;1.02;;;15.20;99.90;;;;;;4982484;28;20051;-51
2024/04/07 05:27:09;;;;;;;2.17;1.23;;;15.20;99.90;;;;;;4984923;28;20066;-53
2024/04/07 05:29:35;;;;;;;2.53;1.10;;;15.10;99.90;;;;;;4979589;28;20085;-49
2024/04/07 05:32:00;;;;;;;2.53;0.90;;;15.10;99.90;;;;;;4985211;28;20034;-49
2024/04/07 05:34:28;;;;;;;1.40;0.90;;;15.00;99.90;;;;;;4978291;28;20038;-52
2024/04/07 05:36:53;;;;;;;3.75;0.90;;;15.00;99.90;;;;;;4983124;28;20056;-51
2024/04/07 05:39:19;;;;;;;5.20;1.23;;;14.90;99.90;;;;;;4980634;28;20484;-49
2024/04/07 05:41:44;;;;;;;3.38;0.85;;;14.90;99.90;;;;;;4982133;28;20027;-52
2024/04/07 05:44:10;;;;;;;1.33;1.02;;;14.90;99.90;;;;;;4976557;28;20034;-50
2024/04/07 05:46:35;;;;;;;3.72;1.05;;;14.80;99.90;;;;;;4981217;28;20509;-49
2024/04/07 05:49:01;;;;;;;3.78;1.00;;;14.70;99.90;;;;;;4981037;28;20037;-51
2024/04/07 05:51:26;;;;;;;2.78;1.15;;;14.70;99.90;;;;;;4982847;28;20045;-54
2024/04/07 05:53:52;;;;;;;3.35;1.40;;;14.70;99.90;;;;;;4978871;28;20057;-54
2024/04/07 05:56:18;;;;;;;2.25;1.05;;;14.60;99.90;;;;;;4984904;28;20050;-56
2024/04/07 05:58:43;;;;;;;1.58;0.90;;;14.60;99.90;;;;;;4983702;28;20033;-53
2024/04/07 06:01:09;;;;;;;4.72;1.13;;;14.60;99.90;;;;;;4986776;28;20401;-50
2024/04/07 06:03:35;;;;;;;3.95;1.13;;;14.60;99.90;;;;;;4985059;28;20113;-52
2024/04/07 06:06:04;;;;;;;4.43;0.98;;;14.60;99.90;;;;;;4985056;28;22427;-52
2024/04/07 06:08:29;;;;;;;2.60;1.00;;;14.60;99.90;;;;;;4985012;28;20513;-47
2024/04/07 06:10:55;;;;;;;2.50;0.90;;;14.60;99.90;;;;;;4985313;28;20046;-53
2024/04/07 06:13:21;;;;;;;6.28;1.50;;;14.60;99.90;;;;;;4985219;28;20026;-50
2024/04/07 06:15:46;;;;;;;2.33;1.23;;;14.60;99.90;;;;;;4982830;28;20105;-55
2024/04/07 06:18:12;;;;;;;2.05;1.10;;;14.60;99.90;;;;;;4985111;28;20034;-48
2024/04/07 06:20:37;;;;;;;2.42;1.27;;;14.70;99.90;;;;;;4986826;28;20026;-49
2024/04/07 06:23:03;;;;;;;1.85;0.88;;;14.70;99.90;;;;;;4986165;28;20027;-50
2024/04/07 06:25:29;;;;;;;3.10;0.93;;;14.70;99.90;;;;;;4986233;28;20033;-51
2024/04/07 06:27:54;;;;;;;2.72;1.30;;;14.70;99.90;;;;;;4985591;28;20105;-50
2024/04/07 06:30:20;;;;;;;2.42;1.27;;;14.70;99.90;;;;;;4985943;28;20027;-47
2024/04/07 06:32:46;;;;;;;4.20;1.83;;;14.70;99.90;;;;;;4986509;28;20389;-51
2024/04/07 06:35:12;;;;;;;5.63;1.65;;;14.70;99.90;;;;;;4983887;28;20030;-51
2024/04/07 06:37:37;;;;;;;2.95;1.17;;;14.80;99.90;;;;;;4986967;28;20033;-49
2024/04/07 06:40:03;;;;;;;3.33;1.02;;;14.80;99.90;;;;;;4983785;28;20065;-54
2024/04/07 06:42:30;;;;;;;2.28;1.48;;;14.90;99.90;;;;;;4986727;28;20631;-52
2024/04/07 06:44:57;;;;;;;3.03;1.30;;;14.90;99.90;;;;;;4984546;28;20081;-49
2024/04/07 06:47:23;;;;;;;2.38;0.98;;;14.90;99.90;;;;;;4983832;28;20522;-50
2024/04/07 06:49:50;;;;;;;3.70;0.93;;;15.00;99.90;;;;;;4984971;28;20022;-48
2024/04/07 06:52:16;;;;;;;3.35;1.25;;;15.10;99.90;;;;;;4985817;28;20407;-49
2024/04/07 06:54:43;;;;;;;1.35;1.08;;;15.10;99.90;;;;;;4986990;28;20027;-51
2024/04/07 06:57:09;;;;;;;1.90;1.00;;;15.20;99.90;;;;;;4985516;28;20264;-50
2024/04/07 06:59:34;;;;;;;1.27;0.70;;;15.30;99.90;;;;;;4985203;28;20030;-49
2024/04/07 07:02:02;;;;;;;2.08;0.80;;;15.30;99.90;;;;;;4983621;28;20034;-50
2024/04/07 07:04:28;;;;;;;2.58;0.80;;;15.40;99.90;;;;;;4983904;28;20541;-52
2024/04/07 07:06:53;;;;;;;3.78;1.05;;;15.40;99.90;;;;;;4983989;28;20026;-52
2024/04/07 07:09:19;;;;;;;4.15;0.93;;;15.40;99.90;;;;;;4984837;28;20089;-51
2024/04/07 07:11:44;;;;;;;3.00;1.20;;;15.40;99.90;;;;;;4984160;28;20503;-50
2024/04/07 07:14:10;;;;;;;2.83;0.82;;;15.40;99.90;;;;;;4985062;28;20448;-50
2024/04/07 07:16:36;;;;;;;1.20;0.68;;;15.50;99.90;;;;;;4986118;28;20491;-47
2024/04/07 07:19:01;;;;;;;3.20;0.52;;;15.50;99.90;;;;;;4984731;28;20034;-52
2024/04/07 07:21:27;;;;;;;1.90;0.70;;;15.50;99.90;;;;;;4982924;28;20030;-48
2024/04/07 07:23:53;;;;;;;1.25;0.57;;;15.50;99.90;;;;;;4984779;28;20034;-49
2024/04/07 07:26:18;;;;;;;1.67;0.60;;;15.60;99.90;;;;;;4984148;28;20022;-49
2024/04/07 07:28:44;;;;;;;0.52;0.50;;;15.60;99.90;;;;;;4986165;28;20110;-50
2024/04/07 07:31:09;;;;;;;1.95;0.50;;;15.60;99.90;;;;;;4985735;28;20218;-52
2024/04/07 07:33:35;;;;;;;1.75;0.63;;;15.60;99.90;;;;;;4981869;28;20061;-48
2024/04/07 07:36:00;;;;;;;1.15;0.70;;;15.70;99.90;;;;;;4984856;28;20144;-47
2024/04/07 07:38:26;;;;;;;1.90;0.50;;;15.70;99.90;;;;;;4984173;28;20038;-50
2024/04/07 07:40:52;;;;;;;1.90;0.52;;;15.70;99.90;;;;;;4986667;28;20030;-52
2024/04/07 07:43:17;;;;;;;0.95;0.40;;;15.70;99.90;;;;;;4984737;28;20030;-49
2024/04/07 07:45:46;;;;;;;1.77;0.57;;;15.70;99.90;;;;;;4981588;28;20053;-52
2024/04/07 07:48:14;;;;;;;2.15;0.60;;;15.70;99.90;;;;;;4984068;28;20042;-49
2024/04/07 07:50:47;;;;;;;1.58;0.60;;;15.70;99.90;;;;;;4979694;28;20031;-48
2024/04/07 07:53:12;;;;;;;1.10;0.60;;;15.60;99.90;;;;;;4982268;28;20022;-50
2024/04/07 07:55:38;;;;;;;1.98;0.80;;;15.60;99.90;;;;;;4984691;28;20104;-50
2024/04/07 07:58:04;;;;;;;0.57;0.55;;;15.50;99.90;;;;;;4982066;28;20078;-50
2024/04/07 08:00:29;;;;;;;1.95;0.60;;;15.50;99.90;;;;;;4986461;28;20022;-53
2024/04/07 08:02:55;;;;;;;2.47;1.25;;;15.40;99.90;;;;;;4984363;28;20111;-48
2024/04/07 08:05:21;;;;;;;1.20;0.60;;;15.40;99.90;;;;;;4984340;28;20022;-49
2024/04/07 08:07:46;;;;;;;1.80;0.50;;;15.30;99.90;;;;;;4982529;28;20456;-51
2024/04/07 08:10:12;;;;;;;1.27;0.63;;;15.20;99.90;;;;;;4985009;28;20105;-50
2024/04/07 08:12:40;;;;;;;1.55;0.65;;;15.20;99.90;;;;;;4983815;28;20675;-53
2024/04/07 08:15:06;;;;;;;0.38;0.38;;;15.20;99.90;;;;;;4984132;28;20026;-50
2024/04/07 08:17:31;;;;;;;0.65;0.40;;;15.10;99.90;;;;;;4983046;28;20573;-49
2024/04/07 08:19:57;;;;;;;2.15;0.70;;;15.20;99.90;;;;;;4984925;28;20088;-52
2024/04/07 08:22:22;;;;;;;1.77;0.88;;;15.20;99.90;;;;;;4998560;28;20034;-53
2024/04/07 08:24:48;;;;;;;1.55;0.43;;;15.30;99.90;;;;;;4981422;28;20122;-50
2024/04/07 08:27:13;;;;;;;0.50;0.43;;;15.30;99.90;;;;;;4984319;28;20053;-51
2024/04/07 08:29:39;;;;;;;1.50;1.40;;;15.40;99.90;;;;;;4979314;28;20542;-53
2024/04/07 08:32:06;;;;;;;3.55;1.55;;;15.50;99.90;;;;;;4982105;28;20473;-49
2024/04/07 08:34:31;;;;;;;7.53;5.15;;;15.60;99.90;;;;;;4982867;28;20031;-54
2024/04/07 08:36:57;;;;;;;11.00;7.63;;;15.80;99.90;;;;;;4980536;28;20034;-53
2024/04/07 08:39:22;;;;;;;5.93;5.10;;;15.90;99.90;;;;;;4984203;28;20486;-49
2024/04/07 08:41:48;;;;;;;5.18;2.40;;;16.10;99.90;;;;;;4982998;28;20096;-49
2024/04/07 08:44:15;;;;;;;2.17;1.27;;;16.20;99.90;;;;;;4982528;28;20503;-54
2024/04/07 08:46:42;;;;;;;1.60;1.30;;;16.30;99.90;;;;;;4983828;28;20077;-50
2024/04/07 08:49:10;;;;;;;3.22;2.70;;;16.50;99.90;;;;;;4980932;28;20126;-47
2024/04/07 08:51:36;;;;;;;1.08;1.00;;;16.80;99.90;;;;;;4981035;28;20046;-51
2024/04/07 08:54:03;;;;;;;1.10;0.82;;;17.20;99.90;;;;;;4985359;28;20137;-50
2024/04/07 08:56:29;;;;;;;0.90;0.80;;;17.50;99.90;;;;;;4982346;28;20042;-48
2024/04/07 08:58:57;;;;;;;1.77;0.70;;;17.70;99.90;;;;;;4984002;28;20037;-49
2024/04/07 09:01:31;;;;;;;3.25;0.70;;;17.90;99.90;;;;;;4981499;28;20190;-52
2024/04/07 09:03:59;;;;;;;2.15;0.60;;;18.00;99.90;;;;;;4984527;28;20022;-51
2024/04/07 09:06:27;;;;;;;3.45;0.60;;;17.90;99.90;;;;;;4982889;28;20030;-49
2024/04/07 09:08:56;;;;;;;1.73;0.60;;;17.80;99.90;;;;;;4983465;28;20038;-50
2024/04/07 09:11:22;;;;;;;0.65;0.40;;;17.80;99.90;;;;;;4981445;28;20018;-52
2024/04/07 09:13:47;;;;;;;1.13;0.68;;;17.80;99.90;;;;;;4981370;28;20717;-52
2024/04/07 09:16:13;;;;;;;1.58;1.00;;;17.90;99.90;;;;;;4982310;28;20234;-52
2024/04/07 09:18:39;;;;;;;1.92;1.13;;;18.00;99.90;;;;;;4982256;28;20022;-51
2024/04/07 09:21:12;;;;;;;2.83;0.70;;;18.30;99.90;;;;;;4979803;28;20521;-51
2024/04/07 09:23:37;;;;;;;4.60;0.52;;;18.50;99.90;;;;;;4980587;28;20161;-48
2024/04/07 09:26:03;;;;;;;2.35;0.68;;;18.70;99.90;;;;;;4982389;28;20125;-54
2024/04/07 09:28:28;;;;;;;2.33;0.50;;;18.90;99.90;;;;;;4982569;28;20030;-51
2024/04/07 09:30:54;;;;;;;0.80;0.70;;;19.00;99.90;;;;;;4983437;28;20334;-50
2024/04/07 09:33:19;;;;;;;1.17;0.50;;;19.00;99.90;;;;;;4986884;28;20041;-47
2024/04/07 09:35:45;;;;;;;1.20;0.70;;;18.90;99.90;;;;;;4984851;28;20023;-48
2024/04/07 09:38:11;;;;;;;3.75;0.80;;;19.00;99.90;;;;;;4985673;28;20018;-49
2024/04/07 09:40:38;;;;;;;1.85;0.70;;;19.00;99.90;;;;;;4984678;28;20031;-53
2024/04/07 09:43:04;;;;;;;1.13;0.50;;;19.10;99.90;;;;;;4986259;28;20827;-52
2024/04/07 09:45:30;;;;;;;1.30;0.73;;;19.10;99.90;;;;;;4982423;28;20030;-53
2024/04/07 09:48:02;;;;;;;1.38;0.60;;;19.20;99.90;;;;;;4987587;28;20026;-47
2024/04/07 09:50:34;;;;;;;1.50;0.50;;;19.20;99.90;;;;;;4983720;28;20109;-52
2024/04/07 09:53:12;;;;;;;2.88;0.63;;;19.20;99.90;;;;;;4986860;28;20502;-52
2024/04/07 09:55:42;;;;;;;2.40;0.60;;;19.20;99.90;;;;;;4985785;28;20414;-52
2024/04/07 09:58:10;;;;;;;2.20;0.60;;;19.10;99.90;;;;;;4985337;28;20514;-50
2024/04/07 10:00:40;;;;;;;1.60;0.50;;;19.10;99.90;;;;;;4981873;28;20557;-48
2024/04/07 10:03:06;;;;;;;1.83;0.50;;;19.20;99.90;;;;;;4983351;28;20057;-50
2024/04/07 10:05:31;;;;;;;0.73;0.30;;;19.30;99.90;;;;;;4980567;28;20034;-50
2024/04/07 10:07:58;;;;;;;0.68;0.40;;;19.50;99.90;;;;;;4987845;28;20026;-53
2024/04/07 10:10:25;;;;;;;3.17;0.95;;;19.50;99.90;;;;;;4983842;28;20034;-50
2024/04/07 10:12:52;;;;;;;0.40;0.30;;;19.50;99.90;;;;;;4983430;28;20034;-53
2024/04/07 10:15:26;;;;;;;1.08;0.60;;;19.40;99.90;;;;;;4986417;28;20857;-51
2024/04/07 10:17:52;;;;;;;0.95;0.63;;;19.40;99.90;;;;;;4987699;28;20042;-55
2024/04/07 10:20:19;;;;;;;4.32;0.57;;;19.40;99.90;;;;;;4983548;28;20052;-53
2024/04/07 10:22:44;;;;;;;1.60;0.40;;;19.40;99.90;;;;;;4982944;28;20042;-49
2024/04/07 10:25:10;;;;;;;1.95;0.85;;;19.30;99.90;;;;;;4984679;28;20022;-46
2024/04/07 10:27:45;;;;;;;0.98;0.60;;;19.30;99.90;;;;;;4983488;28;20041;-56
2024/04/07 10:30:12;;;;;;;2.05;0.50;;;19.50;99.90;;;;;;4985708;28;20021;-49
2024/04/07 10:32:39;;;;;;;1.10;0.70;;;19.50;99.90;;;;;;4986250;28;20065;-50
2024/04/07 10:35:09;;;;;;;1.75;0.73;;;19.50;99.90;;;;;;4986515;28;20057;-51
2024/04/07 10:37:39;;;;;;;2.88;0.73;;;19.50;99.90;;;;;;4986316;28;20471;-52
2024/04/07 10:40:06;;;;;;;2.88;0.40;;;19.50;99.90;;;;;;4986414;28;20046;-47
2024/04/07 10:42:34;;;;;;;1.40;0.45;;;19.60;99.90;;;;;;4985233;28;20029;-49
2024/04/07 10:45:03;;;;;;;2.10;0.47;;;19.60;99.90;;;;;;4985104;28;20038;-48
2024/04/07 10:47:33;;;;;;;3.60;0.85;;;19.60;99.90;;;;;;4982729;28;20026;-49
2024/04/07 10:49:58;;;;;;;1.05;0.68;;;19.60;99.90;;;;;;4981569;28;20026;-45
2024/04/07 10:52:26;;;;;;;1.65;0.52;;;19.60;99.90;;;;;;4984552;28;20026;-45
2024/04/07 10:54:56;;;;;;;3.15;0.60;;;19.70;99.90;;;;;;4985722;28;20418;-49
2024/04/07 10:57:21;;;;;;;1.58;0.63;;;19.70;99.90;;;;;;4983168;28;20022;-47
2024/04/07 10:59:47;;;;;;;2.15;0.60;;;19.80;99.90;;;;;;4985588;28;20776;-45
2024/04/07 11:02:14;;;;;;;3.28;0.80;;;19.90;99.90;;;;;;4981566;28;20022;-49
2024/04/07 11:04:41;;;;;;;2.63;0.47;;;19.90;99.90;;;;;;4983928;28;20109;-49
2024/04/07 11:07:07;;;;;;;1.63;0.70;;;19.90;99.90;;;;;;4985965;28;20110;-49
2024/04/07 11:09:33;;;;;;;1.70;0.80;;;20.00;99.90;;;;;;4985642;28;20026;-47
2024/04/07 11:12:00;;;;;;;1.30;0.55;;;20.10;99.90;;;;;;4983859;28;20033;-45
2024/04/07 11:14:27;;;;;;;3.08;0.70;;;20.10;99.90;;;;;;4983864;28;20034;-49
2024/04/07 11:16:56;;;;;;;0.93;0.57;;;20.20;99.90;;;;;;4982833;28;20539;-51
2024/04/07 11:19:23;;;;;;;3.55;0.80;;;20.30;99.90;;;;;;4984122;28;20039;-50
2024/04/07 11:21:50;;;;;;;1.42;0.95;;;20.20;99.90;;;;;;4984314;28;20435;-46
2024/04/07 11:24:16;;;;;;;4.25;0.90;;;20.10;99.90;;;;;;4985198;28;20481;-46
2024/04/07 11:26:42;;;;;;;6.78;0.73;;;20.10;99.90;;;;;;4982936;28;20041;-52
2024/04/07 11:29:11;;;;;;;0.57;0.57;;;20.20;99.90;;;;;;4985225;28;20053;-50
2024/04/07 11:31:36;;;;;;;1.60;0.60;;;20.30;99.90;;;;;;4984144;28;20117;-48
2024/04/07 11:34:02;;;;;;;1.00;0.68;;;20.30;99.90;;;;;;4984067;28;20134;-46
2024/04/07 11:36:27;;;;;;;0.70;0.50;;;20.40;99.90;;;;;;4982847;28;20085;-48
2024/04/07 11:38:53;;;;;;;4.47;0.93;;;20.50;99.90;;;;;;4984389;28;20084;-46
2024/04/07 11:41:19;;;;;;;1.33;0.90;;;20.60;99.90;;;;;;4983483;28;20035;-49
2024/04/07 11:43:44;;;;;;;0.82;0.65;;;20.60;99.90;;;;;;4977912;28;20026;-51
2024/04/07 11:46:10;;;;;;;1.83;0.70;;;20.60;99.90;;;;;;4983625;28;20834;-50
2024/04/07 11:48:37;;;;;;;1.75;0.55;;;20.60;99.90;;;;;;4984120;28;20033;-48
2024/04/07 11:51:03;;;;;;;0.82;0.38;;;20.60;99.90;;;;;;4982104;28;20038;-48
2024/04/07 11:53:28;;;;;;;1.23;0.70;;;20.50;99.90;;;;;;4982757;28;20040;-46
2024/04/07 11:55:54;;;;;;;2.55;0.57;;;20.40;99.90;;;;;;4981142;28;20022;-44
2024/04/07 11:58:19;;;;;;;0.50;0.50;;;20.40;99.90;;;;;;4984033;28;20019;-47
2024/04/07 12:00:45;;;;;;;3.60;0.50;;;20.50;99.90;;;;;;4983684;28;20109;-47
2024/04/07 12:03:10;;;;;;;2.97;0.70;;;20.50;99.90;;;;;;4996699;28;20035;-51
2024/04/07 12:05:36;;;;;;;2.85;0.70;;;20.50;99.90;;;;;;4983026;28;20034;-47
2024/04/07 12:08:02;;;;;;;1.15;0.60;;;20.50;99.90;;;;;;4984051;28;20096;-50
2024/04/07 12:10:28;;;;;;;2.28;0.57;;;20.70;99.90;;;;;;4983486;28;20030;-46
2024/04/07 12:12:54;;;;;;;1.63;0.65;;;20.80;99.90;;;;;;4983474;28;20045;-46
2024/04/07 12:15:21;;;;;;;1.30;0.70;;;20.80;99.90;;;;;;4985223;28;20027;-49
2024/04/07 12:17:46;;;;;;;2.72;0.85;;;20.80;99.90;;;;;;4982481;28;20113;-49
2024/04/07 12:20:12;;;;;;;1.40;0.57;;;20.70;99.90;;;;;;4983431;28;20109;-50
2024/04/07 12:22:38;;;;;;;1.75;0.75;;;20.60;99.90;;;;;;4982536;28;20054;-47
2024/04/07 12:25:04;;;;;;;1.67;0.82;;;20.40;99.90;;;;;;4979880;28;20030;-51
2024/04/07 12:27:30;;;;;;;0.47;0.40;;;20.40;99.90;;;;;;4983513;28;20027;-50
2024/04/07 12:29:58;;;;;;;1.70;0.40;;;20.40;99.90;;;;;;4983298;28;20085;-50
2024/04/07 12:32:24;;;;;;;1.05;0.55;;;20.50;99.90;;;;;;4983857;28;20056;-47
2024/04/07 12:34:50;;;;;;;0.93;0.52;;;20.60;99.90;;;;;;4980043;28;20502;-49
2024/04/07 12:37:15;;;;;;;1.48;0.40;;;20.60;99.90;;;;;;4984967;28;20030;-52
2024/04/07 12:39:41;;;;;;;0.60;0.60;;;20.70;99.90;;;;;;4982054;28;20636;-52
2024/04/07 12:42:07;;;;;;;2.00;0.60;;;20.80;99.90;;;;;;4985018;28;20026;-47
2024/04/07 12:44:32;;;;;;;1.80;0.40;;;20.70;99.90;;;;;;4982148;28;20034;-49
2024/04/07 12:46:58;;;;;;;1.60;0.50;;;20.70;99.90;;;;;;4979395;28;20038;-48